Time;durP1;ratioP1;P1;durP2;ratioP2;P2;SDS_P1;SDS_P2;PMS_P1;PMS_P2;Temp;Humidity;BMP_temperature;BMP_pressure;BME280_temperature;BME280_humidity;BME280_pressure;Samples;Min_cycle;Max_cycle;Signal;HPM_P1;HPM_P2
2023/07/11 00:00:23;;;;;;;8.65;6.13;;;;;;;;;;5053018;28;20035;-72
2023/07/11 00:02:49;;;;;;;8.82;5.90;;;;;;;;;;5053338;28;20021;-72
2023/07/11 00:05:16;;;;;;;12.20;6.10;;;;;;;;;;5052924;28;20045;-72
2023/07/11 00:07:42;;;;;;;11.20;5.93;;;;;;;;;;5052865;28;20061;-72
2023/07/11 00:10:10;;;;;;;10.90;6.38;;;;;;;;;;5052557;28;20064;-72
2023/07/11 00:12:35;;;;;;;11.93;6.82;;;;;;;;;;5034638;28;20102;-72
2023/07/11 00:15:00;;;;;;;8.38;5.85;;;;;;;;;;5053103;28;20471;-72
2023/07/11 00:17:26;;;;;;;11.50;6.78;;;;;;;;;;5052551;28;20066;-72
2023/07/11 00:19:56;;;;;;;7.82;6.43;;;;;;;;;;5052663;28;20068;-72
2023/07/11 00:22:23;;;;;;;12.00;7.13;;;;;;;;;;5071838;28;20033;-72
2023/07/11 00:24:50;;;;;;;8.25;6.20;;;;;;;;;;5072406;28;20036;-72
2023/07/11 00:27:17;;;;;;;9.90;6.72;;;;;;;;;;5072237;28;20390;-72
2023/07/11 00:29:43;;;;;;;10.40;6.25;;;;;;;;;;5072876;28;20494;-72
2023/07/11 00:32:09;;;;;;;7.90;5.93;;;;;;;;;;5054774;28;20061;-72
2023/07/11 00:34:35;;;;;;;8.30;6.05;;;;;;;;;;5052178;28;20037;-72
2023/07/11 00:37:00;;;;;;;10.48;6.38;;;;;;;;;;5042338;28;20036;-72
2023/07/11 00:39:27;;;;;;;8.98;6.20;;;;;;;;;;5071816;28;20029;-72
2023/07/11 00:41:52;;;;;;;14.27;6.55;;;;;;;;;;5072551;28;20017;-72
2023/07/11 00:44:19;;;;;;;12.70;7.15;;;;;;;;;;5071972;28;20048;-72
2023/07/11 00:46:44;;;;;;;8.70;6.53;;;;;;;;;;5071997;28;20119;-72
2023/07/11 00:49:14;;;;;;;8.85;6.97;;;;;;;;;;5054358;28;20529;-72
2023/07/11 00:51:45;;;;;;;8.00;6.13;;;;;;;;;;5051664;28;20040;-72
2023/07/11 00:54:13;;;;;;;10.75;6.55;;;;;;;;;;5051915;28;20143;-72
2023/07/11 00:56:43;;;;;;;6.85;6.10;;;;;;;;;;5065529;28;20098;-72
2023/07/11 00:59:09;;;;;;;7.13;6.13;;;;;;;;;;5071710;28;20444;-72
2023/07/11 01:01:34;;;;;;;15.20;6.57;;;;;;;;;;5059126;28;20293;-72
2023/07/11 01:04:03;;;;;;;10.50;6.20;;;;;;;;;;5059408;28;20467;-72
2023/07/11 01:06:30;;;;;;;7.38;6.25;;;;;;;;;;5071613;28;20103;-72
2023/07/11 01:08:57;;;;;;;14.32;6.20;;;;;;;;;;5072040;28;20025;-73
2023/07/11 01:11:25;;;;;;;9.75;6.63;;;;;;;;;;5071465;28;20124;-72
2023/07/11 01:13:51;;;;;;;11.38;6.65;;;;;;;;;;5065047;28;20053;-72
2023/07/11 01:16:16;;;;;;;10.85;6.53;;;;;;;;;;5051387;28;20064;-72
2023/07/11 01:18:42;;;;;;;8.15;6.50;;;;;;;;;;5051538;28;20076;-72
2023/07/11 01:21:08;;;;;;;10.43;6.28;;;;;;;;;;5051449;28;20044;-73
2023/07/11 01:23:34;;;;;;;13.35;7.10;;;;;;;;;;5051812;28;20078;-73
2023/07/11 01:26:05;;;;;;;11.02;6.55;;;;;;;;;;5058843;28;20483;-72
2023/07/11 01:28:30;;;;;;;11.85;7.40;;;;;;;;;;5054899;28;20406;-72
2023/07/11 01:30:56;;;;;;;12.40;7.15;;;;;;;;;;5064082;28;20037;-72
2023/07/11 01:33:25;;;;;;;13.05;7.53;;;;;;;;;;5061417;28;20035;-72
2023/07/11 01:35:54;;;;;;;10.88;7.00;;;;;;;;;;5071622;28;20028;-72
2023/07/11 01:38:21;;;;;;;10.82;6.93;;;;;;;;;;5071073;28;20429;-72
2023/07/11 01:40:47;;;;;;;16.40;7.22;;;;;;;;;;5062740;28;20035;-72
2023/07/11 01:43:13;;;;;;;10.30;7.60;;;;;;;;;;5062644;28;20033;-72
2023/07/11 01:45:40;;;;;;;12.50;7.65;;;;;;;;;;5070774;28;20551;-73
2023/07/11 01:48:05;;;;;;;11.57;8.00;;;;;;;;;;5070511;28;20024;-73
2023/07/11 01:50:31;;;;;;;13.50;6.80;;;;;;;;;;5066225;28;20033;-73
2023/07/11 01:52:56;;;;;;;9.05;5.93;;;;;;;;;;5065670;28;20063;-73
2023/07/11 01:55:21;;;;;;;10.10;6.45;;;;;;;;;;5066598;28;20028;-72
2023/07/11 01:57:46;;;;;;;8.48;6.30;;;;;;;;;;5055473;28;20108;-73
2023/07/11 02:00:13;;;;;;;9.35;5.63;;;;;;;;;;5069370;28;20021;-73
2023/07/11 02:02:38;;;;;;;13.10;6.80;;;;;;;;;;5065531;28;20398;-72
2023/07/11 02:05:04;;;;;;;8.27;6.15;;;;;;;;;;5062139;28;20040;-72
2023/07/11 02:07:30;;;;;;;16.27;7.70;;;;;;;;;;5065033;28;20357;-73
2023/07/11 02:09:55;;;;;;;11.93;6.57;;;;;;;;;;5065315;28;20035;-73
2023/07/11 02:12:21;;;;;;;12.95;6.75;;;;;;;;;;5067277;28;20020;-72
2023/07/11 02:14:46;;;;;;;11.05;6.35;;;;;;;;;;5070698;28;20175;-73
2023/07/11 02:17:14;;;;;;;9.52;6.85;;;;;;;;;;5069473;28;20123;-73
2023/07/11 02:19:40;;;;;;;9.45;7.10;;;;;;;;;;5061882;28;20035;-73
2023/07/11 02:22:05;;;;;;;14.07;7.63;;;;;;;;;;5061897;28;20534;-73
2023/07/11 02:24:31;;;;;;;12.32;7.40;;;;;;;;;;5069390;28;20036;-73
2023/07/11 02:26:56;;;;;;;11.43;7.47;;;;;;;;;;5070138;28;20028;-73
2023/07/11 02:29:21;;;;;;;9.00;6.63;;;;;;;;;;5070081;28;20487;-72
2023/07/11 02:31:47;;;;;;;11.63;7.30;;;;;;;;;;5070114;28;20495;-72
2023/07/11 02:34:12;;;;;;;12.30;7.60;;;;;;;;;;5068782;28;20033;-73
2023/07/11 02:36:37;;;;;;;11.13;6.57;;;;;;;;;;5067333;28;20109;-72
2023/07/11 02:39:03;;;;;;;8.48;6.55;;;;;;;;;;5070260;28;20017;-73
2023/07/11 02:41:28;;;;;;;10.00;7.53;;;;;;;;;;5070311;28;20021;-73
2023/07/11 02:43:54;;;;;;;9.93;6.72;;;;;;;;;;5069821;28;20089;-73
2023/07/11 02:46:19;;;;;;;9.77;6.90;;;;;;;;;;5069804;28;20545;-72
2023/07/11 02:48:45;;;;;;;12.32;7.40;;;;;;;;;;5064977;28;20045;-73
2023/07/11 02:51:11;;;;;;;9.77;7.18;;;;;;;;;;5058051;28;20044;-73
2023/07/11 02:53:36;;;;;;;9.10;6.88;;;;;;;;;;5070428;22;20046;-78
2023/07/11 02:56:02;;;;;;;9.95;7.60;;;;;;;;;;5036638;28;20041;-78
2023/07/11 02:58:27;;;;;;;12.05;8.55;;;;;;;;;;5036492;28;20037;-78
2023/07/11 03:00:59;;;;;;;11.80;7.78;;;;;;;;;;5036835;28;20470;-78
2023/07/11 03:03:24;;;;;;;11.27;8.73;;;;;;;;;;5040752;28;20135;-78
2023/07/11 03:05:51;;;;;;;11.45;8.13;;;;;;;;;;5040480;28;20044;-78
2023/07/11 03:08:17;;;;;;;10.32;7.93;;;;;;;;;;5040322;28;20037;-78
2023/07/11 03:10:43;;;;;;;13.25;8.57;;;;;;;;;;5039737;28;20041;-78
2023/07/11 03:13:09;;;;;;;12.02;8.18;;;;;;;;;;5039668;28;20071;-78
2023/07/11 03:15:36;;;;;;;11.60;8.70;;;;;;;;;;5040272;28;20034;-78
2023/07/11 03:18:01;;;;;;;10.82;8.30;;;;;;;;;;5039780;28;20041;-77
2023/07/11 03:20:26;;;;;;;14.20;8.00;;;;;;;;;;5039385;28;20037;-77
2023/07/11 03:22:52;;;;;;;8.77;7.78;;;;;;;;;;5039326;28;20029;-78
2023/07/11 03:25:17;;;;;;;11.85;7.47;;;;;;;;;;5040230;28;20033;-77
2023/07/11 03:27:42;;;;;;;10.57;8.02;;;;;;;;;;5038581;28;20542;-78
2023/07/11 03:30:08;;;;;;;11.63;8.18;;;;;;;;;;5039195;28;20025;-78
2023/07/11 03:32:34;;;;;;;17.10;10.00;;;;;;;;;;5038595;28;20037;-77
2023/07/11 03:34:59;;;;;;;13.73;9.27;;;;;;;;;;5039594;28;20083;-77
2023/07/11 03:37:25;;;;;;;13.27;9.15;;;;;;;;;;5040215;28;20037;-78
2023/07/11 03:39:50;;;;;;;13.32;9.10;;;;;;;;;;5038896;28;20044;-77
2023/07/11 03:42:16;;;;;;;12.55;8.90;;;;;;;;;;5039245;28;20018;-77
2023/07/11 03:44:42;;;;;;;17.85;7.35;;;;;;;;;;5038390;28;20123;-78
2023/07/11 03:47:08;;;;;;;12.77;8.70;;;;;;;;;;5039040;28;20093;-78
2023/07/11 03:49:33;;;;;;;15.18;8.00;;;;;;;;;;5039032;28;20057;-78
2023/07/11 03:51:59;;;;;;;12.05;7.28;;;;;;;;;;5053887;28;20041;-77
2023/07/11 03:54:24;;;;;;;16.10;6.90;;;;;;;;;;5054234;28;20038;-78
2023/07/11 03:56:51;;;;;;;10.75;7.10;;;;;;;;;;5039688;28;20041;-78
2023/07/11 03:59:16;;;;;;;9.52;7.35;;;;;;;;;;5036623;28;20037;-78
2023/07/11 04:01:41;;;;;;;13.65;7.22;;;;;;;;;;5036364;28;20048;-77
2023/07/11 04:04:06;;;;;;;8.68;7.63;;;;;;;;;;5053978;28;20041;-78
2023/07/11 04:06:32;;;;;;;15.48;8.20;;;;;;;;;;5053711;28;20491;-77
2023/07/11 04:08:57;;;;;;;15.50;7.72;;;;;;;;;;5037720;28;20017;-78
2023/07/11 04:11:23;;;;;;;11.68;8.27;;;;;;;;;;5038535;28;20037;-78
2023/07/11 04:13:48;;;;;;;13.57;7.75;;;;;;;;;;5037778;28;20508;-78
2023/07/11 04:16:13;;;;;;;12.70;6.47;;;;;;;;;;5037658;28;20071;-78
2023/07/11 04:18:38;;;;;;;12.77;7.85;;;;;;;;;;5037130;28;20025;-78
2023/07/11 04:21:04;;;;;;;16.10;8.98;;;;;;;;;;5037374;28;20112;-77
2023/07/11 04:23:29;;;;;;;11.18;7.90;;;;;;;;;;5037903;28;20025;-77
2023/07/11 04:25:54;;;;;;;14.98;9.05;;;;;;;;;;5037775;28;20029;-77
2023/07/11 04:28:20;;;;;;;12.13;8.60;;;;;;;;;;5037987;28;20037;-78
2023/07/11 04:30:45;;;;;;;16.25;9.02;;;;;;;;;;5038284;28;20034;-78
2023/07/11 04:33:10;;;;;;;12.73;8.65;;;;;;;;;;5037824;28;20051;-76
2023/07/11 04:35:36;;;;;;;10.07;8.30;;;;;;;;;;5036791;28;20112;-78
2023/07/11 04:38:01;;;;;;;10.27;7.40;;;;;;;;;;5038774;28;20037;-76
2023/07/11 04:40:27;;;;;;;16.65;8.13;;;;;;;;;;5036119;28;20395;-78
2023/07/11 04:42:52;;;;;;;13.45;7.63;;;;;;;;;;5038613;28;20041;-78
2023/07/11 04:45:18;;;;;;;16.67;7.85;;;;;;;;;;5053754;28;20459;-78
2023/07/11 04:47:43;;;;;;;15.20;6.85;;;;;;;;;;5039319;28;20041;-78
2023/07/11 04:50:09;;;;;;;19.55;6.80;;;;;;;;;;5037179;28;20061;-78
2023/07/11 04:52:34;;;;;;;21.25;6.97;;;;;;;;;;5035762;28;20114;-77
2023/07/11 04:54:59;;;;;;;25.63;7.63;;;;;;;;;;5037046;28;20536;-79
2023/07/11 04:57:24;;;;;;;15.65;6.72;;;;;;;;;;5038186;28;20032;-79
2023/07/11 04:59:50;;;;;;;28.52;7.88;;;;;;;;;;5038705;28;20529;-79
2023/07/11 05:02:15;;;;;;;13.82;7.68;;;;;;;;;;5053660;28;20057;-79
2023/07/11 05:04:41;;;;;;;16.42;8.07;;;;;;;;;;5034772;28;20507;-79
2023/07/11 05:07:07;;;;;;;12.23;7.38;;;;;;;;;;5053116;28;20029;-77
2023/07/11 05:09:32;;;;;;;11.23;7.18;;;;;;;;;;5034693;28;20033;-78
2023/07/11 05:11:57;;;;;;;12.48;7.80;;;;;;;;;;5036288;28;20472;-78
2023/07/11 05:14:23;;;;;;;17.05;7.68;;;;;;;;;;5035462;28;20029;-78
2023/07/11 05:16:49;;;;;;;15.40;7.43;;;;;;;;;;5035793;28;20041;-77
2023/07/11 05:19:14;;;;;;;13.85;7.13;;;;;;;;;;5035402;28;20037;-77
2023/07/11 05:21:40;;;;;;;13.20;7.30;;;;;;;;;;5050590;28;20025;-79
2023/07/11 05:24:05;;;;;;;15.20;7.53;;;;;;;;;;5035093;28;20100;-78
2023/07/11 05:26:31;;;;;;;13.88;7.90;;;;;;;;;;5036193;28;20025;-78
2023/07/11 05:28:56;;;;;;;12.27;7.60;;;;;;;;;;5035650;28;20045;-78
2023/07/11 05:31:22;;;;;;;14.75;7.82;;;;;;;;;;5051278;28;20029;-77
2023/07/11 05:33:47;;;;;;;13.00;7.60;;;;;;;;;;5036042;28;20033;-78
2023/07/11 05:36:32;;;;;;;12.40;7.50;;;;;;;;;;5035627;28;20391;-78
2023/07/11 05:39:10;;;;;;;11.15;7.30;;;;;;;;;;5036222;28;20041;-77
2023/07/11 05:41:38;;;;;;;16.30;7.75;;;;;;;;;;5034960;28;20042;-78
2023/07/11 05:44:04;;;;;;;12.13;6.70;;;;;;;;;;5036355;28;20041;-79
2023/07/11 05:46:29;;;;;;;12.68;6.85;;;;;;;;;;5034895;28;20133;-79
2023/07/11 05:48:56;;;;;;;10.88;6.63;;;;;;;;;;5036228;28;20069;-78
2023/07/11 05:51:22;;;;;;;8.68;6.75;;;;;;;;;;5035939;28;20018;-78
2023/07/11 05:53:51;;;;;;;12.15;7.00;;;;;;;;;;5053564;28;20030;-79
2023/07/11 05:56:18;;;;;;;8.10;6.03;;;;;;;;;;5036936;28;20033;-79
2023/07/11 05:58:44;;;;;;;8.80;5.95;;;;;;;;;;5052607;28;20097;-79
2023/07/11 06:01:16;;;;;;;7.57;5.50;;;;;;;;;;5035402;28;20044;-79
2023/07/11 06:03:45;;;;;;;13.75;5.70;;;;;;;;;;5035114;28;20049;-77
2023/07/11 06:06:10;;;;;;;9.32;5.65;;;;;;;;;;5036372;28;20028;-78
2023/07/11 06:08:36;;;;;;;7.70;5.20;;;;;;;;;;5036387;28;20472;-79
2023/07/11 06:11:02;;;;;;;11.13;6.00;;;;;;;;;;5036203;28;20044;-79
2023/07/11 06:13:30;;;;;;;8.07;5.72;;;;;;;;;;5036688;28;20037;-79
2023/07/11 06:15:58;;;;;;;9.30;5.32;;;;;;;;;;5036235;28;20030;-79
2023/07/11 06:18:23;;;;;;;8.00;5.45;;;;;;;;;;5036495;28;20415;-79
2023/07/11 06:20:49;;;;;;;8.60;5.38;;;;;;;;;;5052595;28;20064;-79
2023/07/11 06:23:14;;;;;;;8.07;5.20;;;;;;;;;;5036449;28;20033;-78
2023/07/11 06:25:39;;;;;;;6.57;5.53;;;;;;;;;;5036305;28;20057;-79
2023/07/11 06:28:04;;;;;;;9.52;5.10;;;;;;;;;;5035989;28;20075;-79
2023/07/11 06:30:30;;;;;;;7.05;5.00;;;;;;;;;;5051718;28;20116;-79
2023/07/11 06:32:56;;;;;;;8.45;5.63;;;;;;;;;;5037708;28;20079;-79
2023/07/11 06:35:21;;;;;;;8.80;5.20;;;;;;;;;;5035362;28;20131;-78
2023/07/11 06:37:47;;;;;;;6.07;5.10;;;;;;;;;;5038834;28;20029;-79
2023/07/11 06:40:13;;;;;;;10.40;5.32;;;;;;;;;;5040541;28;20112;-79
2023/07/11 06:42:39;;;;;;;7.75;4.90;;;;;;;;;;5038896;28;20509;-79
2023/07/11 06:45:05;;;;;;;11.88;5.60;;;;;;;;;;5040739;28;20041;-79
2023/07/11 06:47:30;;;;;;;7.50;5.57;;;;;;;;;;5056269;28;20398;-79
2023/07/11 06:49:56;;;;;;;5.95;5.00;;;;;;;;;;5038902;28;20025;-78
2023/07/11 06:52:21;;;;;;;9.27;4.95;;;;;;;;;;5038937;28;20033;-79
2023/07/11 06:54:46;;;;;;;8.75;4.90;;;;;;;;;;5039736;28;20034;-79
2023/07/11 06:57:12;;;;;;;9.40;5.00;;;;;;;;;;5039473;28;20021;-79
2023/07/11 06:59:37;;;;;;;7.40;4.72;;;;;;;;;;5038916;28;20032;-79
2023/07/11 07:02:03;;;;;;;6.82;4.80;;;;;;;;;;5039522;28;20408;-79
2023/07/11 07:04:28;;;;;;;7.43;4.72;;;;;;;;;;5039626;28;20041;-79
2023/07/11 07:06:54;;;;;;;6.43;4.80;;;;;;;;;;5039645;28;20037;-78
2023/07/11 07:09:20;;;;;;;11.57;5.10;;;;;;;;;;5038107;28;20026;-79
2023/07/11 07:11:45;;;;;;;6.88;5.20;;;;;;;;;;5039245;28;20017;-79
2023/07/11 07:14:10;;;;;;;8.88;5.32;;;;;;;;;;5038116;28;20034;-79
2023/07/11 07:16:37;;;;;;;9.05;5.20;;;;;;;;;;5039690;28;20537;-79
2023/07/11 07:19:04;;;;;;;10.13;4.93;;;;;;;;;;5039738;28;20033;-79
2023/07/11 07:21:30;;;;;;;20.38;5.30;;;;;;;;;;5039311;28;20083;-79
2023/07/11 07:23:55;;;;;;;16.90;5.15;;;;;;;;;;5038354;28;20021;-78
2023/07/11 07:26:20;;;;;;;7.28;5.13;;;;;;;;;;5038831;28;20476;-79
2023/07/11 07:28:46;;;;;;;10.35;5.28;;;;;;;;;;5040008;28;20029;-79
2023/07/11 07:31:11;;;;;;;16.08;5.35;;;;;;;;;;5039465;28;20068;-79
2023/07/11 07:33:37;;;;;;;7.15;5.10;;;;;;;;;;5054626;28;20033;-80
2023/07/11 07:36:05;;;;;;;10.18;4.85;;;;;;;;;;5039361;28;20085;-79
2023/07/11 07:38:31;;;;;;;7.88;5.03;;;;;;;;;;5038131;28;20068;-79
2023/07/11 07:41:02;;;;;;;11.45;5.03;;;;;;;;;;5039431;28;20033;-79
2023/07/11 07:43:29;;;;;;;13.98;5.22;;;;;;;;;;5038783;28;20030;-79
2023/07/11 07:45:56;;;;;;;12.50;5.25;;;;;;;;;;5037790;28;20096;-79
2023/07/11 07:48:22;;;;;;;9.43;4.90;;;;;;;;;;5038621;28;20025;-80
2023/07/11 07:50:48;;;;;;;11.75;4.90;;;;;;;;;;5039606;28;20030;-79
2023/07/11 07:53:15;;;;;;;10.35;5.35;;;;;;;;;;5038492;28;20116;-80
2023/07/11 07:55:40;;;;;;;9.98;5.60;;;;;;;;;;5038448;28;20037;-79
2023/07/11 07:58:06;;;;;;;9.60;5.28;;;;;;;;;;5038539;28;20033;-79
2023/07/11 08:00:32;;;;;;;7.57;5.43;;;;;;;;;;5037443;28;20040;-80
2023/07/11 08:02:58;;;;;;;15.48;5.22;;;;;;;;;;5038349;28;20506;-79
2023/07/11 08:05:23;;;;;;;9.40;5.28;;;;;;;;;;5054274;28;20116;-80
2023/07/11 08:07:49;;;;;;;7.90;5.00;;;;;;;;;;5038557;28;20048;-80
2023/07/11 08:10:15;;;;;;;9.13;5.18;;;;;;;;;;5053625;28;20041;-80
2023/07/11 08:12:41;;;;;;;10.25;5.38;;;;;;;;;;5036958;28;20052;-79
2023/07/11 08:15:08;;;;;;;10.65;5.57;;;;;;;;;;5037098;28;20029;-80
2023/07/11 08:17:33;;;;;;;8.57;5.80;;;;;;;;;;5037918;28;20045;-79
2023/07/11 08:19:58;;;;;;;11.13;5.93;;;;;;;;;;5037881;28;20029;-80
2023/07/11 08:22:24;;;;;;;9.18;5.68;;;;;;;;;;5039054;28;20398;-79
2023/07/11 08:24:49;;;;;;;10.52;5.47;;;;;;;;;;5037657;28;20029;-78
2023/07/11 08:27:14;;;;;;;8.40;5.67;;;;;;;;;;5052605;28;20029;-78
2023/07/11 08:29:44;;;;;;;10.57;5.50;;;;;;;;;;5036188;28;20311;-79
2023/07/11 08:32:11;;;;;;;15.35;6.32;;;;;;;;;;5038558;28;20060;-79
2023/07/11 08:34:36;;;;;;;13.85;5.60;;;;;;;;;;5036303;28;20034;-79
2023/07/11 08:37:01;;;;;;;8.35;5.57;;;;;;;;;;5039098;28;20059;-80
2023/07/11 08:39:27;;;;;;;12.40;5.65;;;;;;;;;;5053551;28;20064;-79
2023/07/11 08:41:55;;;;;;;14.30;5.97;;;;;;;;;;5039423;28;20029;-80
2023/07/11 08:44:32;;;;;;;10.40;6.03;;;;;;;;;;5038811;28;20025;-80
2023/07/11 08:47:20;;;;;;;13.45;5.20;;;;;;;;;;5038786;28;20037;-79
2023/07/11 08:49:53;;;;;;;11.95;5.15;;;;;;;;;;5037602;28;20029;-80
2023/07/11 08:52:21;;;;;;;15.95;5.47;;;;;;;;;;5037045;28;20047;-77
2023/07/11 08:54:54;;;;;;;11.75;5.28;;;;;;;;;;5038871;23;20076;-79
2023/07/11 08:57:23;;;;;;;9.35;5.38;;;;;;;;;;5014738;28;20098;-81
2023/07/11 08:59:59;;;;;;;7.85;5.85;;;;;;;;;;5018188;28;20036;-81
2023/07/11 09:02:40;;;;;;;13.82;5.80;;;;;;;;;;5014430;28;20034;-81
2023/07/11 09:05:13;;;;;;;10.93;5.90;;;;;;;;;;4998428;28;20500;-81
2023/07/11 09:07:42;;;;;;;12.25;5.60;;;;;;;;;;4983356;28;20031;-79
2023/07/11 09:10:31;;;;;;;10.07;5.15;;;;;;;;;;4990229;28;20042;-81
2023/07/11 09:13:10;;;;;;;12.38;5.40;;;;;;;;;;4980787;28;20153;-81
2023/07/11 09:15:44;;;;;;;9.02;4.55;;;;;;;;;;4962371;28;20039;-81
2023/07/11 09:18:24;;;;;;;13.80;5.10;;;;;;;;;;4990920;28;20026;-81
2023/07/11 09:21:21;;;;;;;8.70;4.97;;;;;;;;;;4984074;28;20035;-81
2023/07/11 09:24:08;;;;;;;7.90;4.15;;;;;;;;;;4992789;28;20037;-81
2023/07/11 09:26:39;;;;;;;12.30;5.60;;;;;;;;;;5003983;28;20042;-81
2023/07/11 09:29:06;;;;;;;7.75;4.07;;;;;;;;;;4999498;28;20038;-80
2023/07/11 09:31:41;;;;;;;4.97;4.22;;;;;;;;;;4993070;28;20034;-79
2023/07/11 09:34:19;;;;;;;5.72;4.05;;;;;;;;;;4989304;28;20121;-79
2023/07/11 09:36:48;;;;;;;7.28;4.32;;;;;;;;;;4986431;28;20569;-80
2023/07/11 09:39:35;;;;;;;6.18;4.20;;;;;;;;;;4996573;28;20026;-81
2023/07/11 09:42:04;;;;;;;6.45;4.15;;;;;;;;;;5009079;28;20021;-80
2023/07/11 09:44:29;;;;;;;10.90;4.50;;;;;;;;;;5006450;28;20069;-81
2023/07/11 09:46:55;;;;;;;6.28;4.47;;;;;;;;;;5009299;28;20068;-81
2023/07/11 09:49:24;;;;;;;8.50;4.20;;;;;;;;;;4996961;28;20034;-81
2023/07/11 09:51:59;;;;;;;11.45;4.72;;;;;;;;;;5003319;28;20042;-81
2023/07/11 09:54:42;;;;;;;6.30;4.38;;;;;;;;;;5010184;28;20122;-84
2023/07/11 09:57:12;;;;;;;13.20;4.53;;;;;;;;;;5020320;28;20025;-81
2023/07/11 09:59:38;;;;;;;7.22;4.05;;;;;;;;;;5029966;28;20027;-82
2023/07/11 10:02:04;;;;;;;6.82;4.20;;;;;;;;;;5041500;28;20380;-82
2023/07/11 10:04:31;;;;;;;9.68;3.85;;;;;;;;;;5040450;28;20116;-81
2023/07/11 10:07:01;;;;;;;5.90;4.20;;;;;;;;;;5040776;28;20044;-82
2023/07/11 10:09:26;;;;;;;5.50;4.15;;;;;;;;;;5040832;28;20034;-82
2023/07/11 10:12:03;;;;;;;9.02;3.95;;;;;;;;;;5038903;28;20120;-80
2023/07/11 10:14:39;;;;;;;4.70;3.60;;;;;;;;;;5003503;28;20046;-81
2023/07/11 10:17:13;;;;;;;9.40;4.07;;;;;;;;;;5024958;28;20046;-81
2023/07/11 10:19:39;;;;;;;5.72;3.63;;;;;;;;;;5020837;28;20030;-83
2023/07/11 10:22:20;;;;;;;11.50;3.70;;;;;;;;;;5016246;28;20065;-79
2023/07/11 10:24:46;;;;;;;12.05;4.25;;;;;;;;;;5023455;28;20061;-81
2023/07/11 10:27:24;;;;;;;9.27;4.22;;;;;;;;;;5024134;28;20040;-80
2023/07/11 10:29:54;;;;;;;5.47;3.85;;;;;;;;;;5019828;28;20380;-81
2023/07/11 10:32:39;;;;;;;9.25;3.85;;;;;;;;;;5024307;28;20033;-81
2023/07/11 10:35:15;;;;;;;6.40;4.00;;;;;;;;;;5011738;28;20060;-79
2023/07/11 10:37:42;;;;;;;13.18;3.75;;;;;;;;;;5007188;28;20056;-83
2023/07/11 10:40:19;;;;;;;5.82;3.65;;;;;;;;;;5003939;28;20062;-82
2023/07/11 10:42:57;;;;;;;6.93;3.75;;;;;;;;;;5021639;28;20041;-83
2023/07/11 10:45:27;;;;;;;7.28;3.67;;;;;;;;;;5024665;28;20038;-83
2023/07/11 10:48:01;;;;;;;6.47;3.90;;;;;;;;;;5008605;28;20026;-82
2023/07/11 10:50:49;;;;;;;7.05;4.03;;;;;;;;;;5004410;28;20076;-82
2023/07/11 10:53:28;;;;;;;10.77;3.95;;;;;;;;;;5003997;28;20534;-82
2023/07/11 10:56:05;;;;;;;8.98;4.13;;;;;;;;;;4986851;28;20031;-82
2023/07/11 10:58:32;;;;;;;4.53;3.75;;;;;;;;;;5004781;28;20026;-81
2023/07/11 11:01:09;;;;;;;8.75;3.90;;;;;;;;;;5025881;28;20026;-81
2023/07/11 11:03:42;;;;;;;6.47;3.47;;;;;;;;;;5043350;28;20042;-81
2023/07/11 11:06:22;;;;;;;7.73;4.00;;;;;;;;;;5026297;28;20091;-81
2023/07/11 11:09:14;;;;;;;7.05;4.13;;;;;;;;;;5029960;28;20349;-84
2023/07/11 11:11:54;;;;;;;4.78;3.78;;;;;;;;;;5010981;28;20077;-83
2023/07/11 11:14:28;;;;;;;12.90;4.38;;;;;;;;;;5006908;28;21005;-83
2023/07/11 11:17:16;;;;;;;5.70;3.60;;;;;;;;;;5014392;28;20050;-82
2023/07/11 11:20:00;;;;;;;8.45;3.65;;;;;;;;;;5013157;28;20042;-83
2023/07/11 11:23:08;;;;;;;10.95;4.07;;;;;;;;;;4994316;28;20129;-81
2023/07/11 11:25:43;;;;;;;8.27;3.78;;;;;;;;;;4988725;28;20132;-82
2023/07/11 11:28:26;;;;;;;7.82;3.92;;;;;;;;;;5020637;28;20056;-82
2023/07/11 11:30:51;;;;;;;10.98;4.00;;;;;;;;;;5025841;28;20087;-82
2023/07/11 11:33:33;;;;;;;11.05;4.18;;;;;;;;;;5006101;28;20104;-84
2023/07/11 11:36:11;;;;;;;6.85;3.92;;;;;;;;;;5038606;28;20029;-83
2023/07/11 11:38:57;;;;;;;9.90;3.90;;;;;;;;;;5026388;28;20051;-82
2023/07/11 11:41:36;;;;;;;5.03;3.90;;;;;;;;;;4999861;28;20150;-82
2023/07/11 11:44:09;;;;;;;5.25;4.07;;;;;;;;;;5002645;28;20044;-82
2023/07/11 11:46:35;;;;;;;10.15;4.43;;;;;;;;;;5004145;28;20038;-80
2023/07/11 11:49:02;;;;;;;6.25;3.72;;;;;;;;;;5012828;28;20134;-80
2023/07/11 11:51:28;;;;;;;11.73;4.32;;;;;;;;;;5003425;28;20035;-81
2023/07/11 11:54:16;;;;;;;7.28;3.38;;;;;;;;;;5007390;28;20033;-81
2023/07/11 11:56:50;;;;;;;5.65;3.30;;;;;;;;;;5010655;28;20534;-82
2023/07/11 11:59:20;;;;;;;6.82;4.05;;;;;;;;;;5009302;28;20037;-82
2023/07/11 12:01:56;;;;;;;7.45;3.60;;;;;;;;;;5007935;28;20026;-81
2023/07/11 12:04:31;;;;;;;5.03;3.42;;;;;;;;;;5006716;28;20038;-84
2023/07/11 12:07:02;;;;;;;7.78;3.85;;;;;;;;;;5009230;28;20042;-82
2023/07/11 12:09:33;;;;;;;3.67;2.92;;;;;;;;;;5002537;28;20037;-81
2023/07/11 12:12:16;;;;;;;11.75;3.85;;;;;;;;;;5014139;28;20066;-81
2023/07/11 12:14:58;;;;;;;13.45;3.33;;;;;;;;;;5016052;28;20042;-82
2023/07/11 12:17:32;;;;;;;7.07;3.20;;;;;;;;;;5016111;28;20037;-84
2023/07/11 12:20:09;;;;;;;5.10;3.25;;;;;;;;;;5014722;28;20223;-81
2023/07/11 12:22:37;;;;;;;6.63;3.47;;;;;;;;;;5008841;28;20034;-83
2023/07/11 12:25:17;;;;;;;5.07;3.40;;;;;;;;;;5011456;28;20034;-83
2023/07/11 12:28:01;;;;;;;4.43;3.47;;;;;;;;;;5000493;28;20577;-81
2023/07/11 12:30:26;;;;;;;6.05;3.50;;;;;;;;;;5017140;28;20036;-80
2023/07/11 12:33:12;;;;;;;6.18;3.50;;;;;;;;;;5020256;28;20112;-80
2023/07/11 12:35:38;;;;;;;6.78;3.60;;;;;;;;;;5007090;28;20045;-78
2023/07/11 12:38:16;;;;;;;5.18;3.20;;;;;;;;;;5012802;28;20038;-80
2023/07/11 12:41:04;;;;;;;6.80;3.50;;;;;;;;;;5017445;28;20496;-80
2023/07/11 12:43:33;;;;;;;4.28;3.88;;;;;;;;;;5009638;28;20033;-79
2023/07/11 12:46:15;;;;;;;9.57;3.72;;;;;;;;;;5003609;28;20034;-80
2023/07/11 12:48:45;;;;;;;4.80;3.83;;;;;;;;;;4990974;28;20038;-80
2023/07/11 12:51:24;;;;;;;6.50;3.70;;;;;;;;;;4996232;28;20042;-81
2023/07/11 12:53:57;;;;;;;3.83;3.42;;;;;;;;;;4993588;28;20088;-80
2023/07/11 12:56:23;;;;;;;7.90;3.80;;;;;;;;;;4996103;28;20038;-79
2023/07/11 12:58:48;;;;;;;4.90;3.58;;;;;;;;;;4993413;28;20583;-80
2023/07/11 13:01:15;;;;;;;11.65;3.80;;;;;;;;;;5001033;28;20089;-80
2023/07/11 13:03:41;;;;;;;6.80;3.97;;;;;;;;;;5005139;28;20038;-82
2023/07/11 13:06:24;;;;;;;12.25;4.47;;;;;;;;;;4998508;28;20034;-82
2023/07/11 13:08:50;;;;;;;9.35;4.05;;;;;;;;;;5000465;28;20037;-82
2023/07/11 13:11:38;;;;;;;7.40;4.00;;;;;;;;;;5015693;28;20056;-81
2023/07/11 13:14:09;;;;;;;7.50;3.88;;;;;;;;;;5014043;28;20400;-83
2023/07/11 13:16:39;;;;;;;5.75;3.90;;;;;;;;;;5018827;28;20153;-83
2023/07/11 13:19:04;;;;;;;7.00;4.20;;;;;;;;;;5009748;28;20042;-82
2023/07/11 13:21:33;;;;;;;6.18;4.13;;;;;;;;;;5018643;28;20045;-82
2023/07/11 13:24:00;;;;;;;6.60;3.95;;;;;;;;;;5006339;28;20036;-81
2023/07/11 13:26:29;;;;;;;4.75;3.90;;;;;;;;;;4999129;28;20692;-82
2023/07/11 13:29:07;;;;;;;6.13;3.92;;;;;;;;;;5004322;28;20571;-81
2023/07/11 13:31:34;;;;;;;6.25;4.05;;;;;;;;;;4985086;28;20030;-81
2023/07/11 13:34:11;;;;;;;5.50;3.92;;;;;;;;;;5004018;28;20034;-79
2023/07/11 13:36:42;;;;;;;5.70;4.20;;;;;;;;;;5003727;28;20034;-81
2023/07/11 13:39:34;;;;;;;9.35;4.03;;;;;;;;;;5014989;28;20447;-80
2023/07/11 13:42:08;;;;;;;9.38;4.40;;;;;;;;;;5007134;28;20033;-81
2023/07/11 13:44:55;;;;;;;6.60;4.45;;;;;;;;;;5009203;28;20046;-80
2023/07/11 13:47:33;;;;;;;10.65;4.32;;;;;;;;;;5007240;28;20046;-80
2023/07/11 13:50:20;;;;;;;4.80;4.25;;;;;;;;;;5007687;28;20069;-79
2023/07/11 13:52:55;;;;;;;6.03;4.30;;;;;;;;;;5030246;28;20050;-81
2023/07/11 13:55:35;;;;;;;7.78;4.43;;;;;;;;;;5021286;28;20669;-83
2023/07/11 13:58:01;;;;;;;11.38;4.82;;;;;;;;;;5007064;28;20045;-83
2023/07/11 14:00:26;;;;;;;6.65;4.10;;;;;;;;;;5009239;28;20029;-83
2023/07/11 14:02:51;;;;;;;11.90;4.15;;;;;;;;;;5016810;28;20093;-82
2023/07/11 14:05:28;;;;;;;10.40;3.92;;;;;;;;;;5006425;28;20034;-84
2023/07/11 14:07:55;;;;;;;9.57;4.30;;;;;;;;;;5016904;28;20074;-83
2023/07/11 14:10:23;;;;;;;11.32;4.50;;;;;;;;;;5013524;28;20030;-82
2023/07/11 14:12:49;;;;;;;4.78;4.30;;;;;;;;;;5019831;28;20141;-81
2023/07/11 14:15:16;;;;;;;9.25;4.15;;;;;;;;;;5003723;28;20534;-82
2023/07/11 14:17:42;;;;;;;13.35;4.22;;;;;;;;;;5001255;28;20034;-82
2023/07/11 14:20:15;;;;;;;7.05;4.22;;;;;;;;;;5009544;28;20041;-82
2023/07/11 14:22:40;;;;;;;12.43;4.35;;;;;;;;;;5009210;28;20042;-82
2023/07/11 14:25:30;;;;;;;6.13;4.28;;;;;;;;;;5003710;28;20424;-82
2023/07/11 14:27:56;;;;;;;5.65;3.83;;;;;;;;;;5010824;28;20058;-82
2023/07/11 14:30:21;;;;;;;4.75;3.65;;;;;;;;;;5014917;28;20022;-81
2023/07/11 14:32:47;;;;;;;5.72;4.00;;;;;;;;;;5008234;28;20046;-81
2023/07/11 14:35:18;;;;;;;5.63;3.70;;;;;;;;;;5009697;28;20103;-82
2023/07/11 14:37:46;;;;;;;3.50;3.20;;;;;;;;;;5007246;28;20053;-83
2023/07/11 14:40:16;;;;;;;8.20;3.78;;;;;;;;;;5000845;28;20038;-83
2023/07/11 14:42:42;;;;;;;9.73;3.65;;;;;;;;;;5006591;28;20043;-82
2023/07/11 14:45:22;;;;;;;4.88;3.50;;;;;;;;;;4999987;28;20034;-82
2023/07/11 14:47:50;;;;;;;4.60;3.33;;;;;;;;;;5005814;28;20061;-82